createdAt,value
2019-01-16T00:00:41.611Z,75.99
2019-01-16T00:03:29.470Z,75.60
2019-01-16T00:06:17.305Z,75.12
2019-01-16T00:09:04.780Z,77.77
2019-01-16T00:12:03.147Z,76.46
2019-01-16T00:14:43.737Z,76.18
2019-01-16T00:17:20.597Z,75.34
2019-01-16T00:20:08.504Z,75.57
2019-01-16T00:23:03.505Z,75.50
2019-01-16T00:25:53.803Z,74.34
2019-01-16T00:28:58.038Z,74.62
2019-01-16T00:31:35.417Z,74.85
2019-01-16T00:34:15.632Z,76.40
2019-01-16T00:37:05.900Z,74.85
2019-01-16T00:39:47.754Z,74.77
2019-01-16T00:42:33.990Z,75.67
2019-01-16T00:45:32.424Z,75.40
2019-01-16T00:48:16.581Z,74.14
2019-01-16T00:50:54.616Z,74.92
2019-01-16T00:53:36.888Z,77.42
2019-01-16T00:56:24.330Z,76.63
2019-01-16T00:59:12.005Z,77.36
2019-01-16T01:01:51.692Z,77.58
2019-01-16T01:04:30.216Z,77.24
2019-01-16T01:07:15.209Z,75.25
2019-01-16T01:10:09.475Z,75.72
2019-01-16T01:12:56.300Z,76.75
2019-01-16T01:15:34.562Z,77.22
2019-01-16T01:18:17.222Z,77.77
2019-01-16T01:21:05.007Z,79.18
2019-01-16T01:23:52.828Z,77.88
2019-01-16T01:26:45.233Z,78.28
2019-01-16T01:29:35.538Z,78.04
2019-01-16T01:32:16.803Z,77.92
2019-01-16T01:35:10.896Z,78.02
2019-01-16T01:38:00.121Z,76.97
2019-01-16T01:41:00.589Z,76.44
2019-01-16T01:43:48.442Z,75.20
2019-01-16T01:46:49.542Z,76.81
2019-01-16T01:49:28.830Z,77.56
2019-01-16T01:52:20.602Z,76.52
2019-01-16T01:55:19.099Z,76.17
2019-01-16T01:57:57.964Z,74.16
2019-01-16T02:00:53.413Z,73.90
2019-01-16T02:03:44.892Z,75.19
2019-01-16T02:06:33.650Z,74.64
2019-01-16T02:09:23.039Z,76.62
2019-01-16T02:12:09.423Z,76.35
2019-01-16T02:14:49.695Z,77.34
2019-01-16T02:17:47.660Z,77.25
2019-01-16T02:20:30.076Z,77.81
2019-01-16T02:23:23.409Z,77.08
2019-01-16T02:26:10.743Z,77.04
2019-01-16T02:28:59.563Z,77.94
2019-01-16T02:31:51.443Z,77.22
2019-01-16T02:34:35.352Z,75.78
2019-01-16T02:37:27.339Z,74.79
2019-01-16T02:40:16.224Z,76.45
2019-01-16T02:43:08.203Z,76.92
2019-01-16T02:46:01.159Z,76.67
2019-01-16T02:48:37.880Z,77.13
2019-01-16T02:51:24.980Z,76.19
2019-01-16T02:54:06.185Z,76.31
2019-01-16T02:56:55.153Z,76.02
2019-01-16T02:59:42.424Z,76.75
2019-01-16T03:02:49.217Z,77.42
2019-01-16T03:05:36.794Z,75.65
2019-01-16T03:08:43.939Z,74.68
2019-01-16T03:11:31.308Z,76.42
2019-01-16T03:14:20.211Z,76.89
2019-01-16T03:17:02.297Z,76.07
2019-01-16T03:19:42.130Z,76.42
2019-01-16T03:22:37.086Z,77.74
2019-01-16T03:25:21.101Z,75.76
2019-01-16T03:28:09.761Z,75.15
2019-01-16T03:30:48.912Z,75.98
2019-01-16T03:33:43.996Z,75.15
2019-01-16T03:36:22.599Z,77.03
2019-01-16T03:39:14.314Z,77.71
2019-01-16T03:41:53.047Z,78.14
2019-01-16T03:44:47.988Z,76.16
2019-01-16T03:47:55.099Z,79.01
2019-01-16T03:50:46.921Z,75.85
2019-01-16T03:53:27.878Z,75.40
2019-01-16T03:56:15.151Z,74.79
2019-01-16T03:59:04.756Z,75.66
2019-01-16T04:01:48.778Z,76.99
2019-01-16T04:04:40.058Z,75.97
2019-01-16T04:07:28.950Z,75.50
2019-01-16T04:10:14.349Z,75.02
2019-01-16T04:13:02.222Z,76.53
2019-01-16T04:15:56.287Z,75.52
2019-01-16T04:18:42.053Z,74.86
2019-01-16T04:21:37.079Z,75.29
2019-01-16T04:24:33.738Z,75.04
2019-01-16T04:27:25.602Z,73.19
2019-01-16T04:30:06.652Z,73.65
2019-01-16T04:32:51.206Z,75.03
2019-01-16T04:35:30.700Z,73.62
2019-01-16T04:38:21.878Z,75.76
2019-01-16T04:41:10.755Z,74.45
2019-01-16T04:43:59.619Z,73.72
2019-01-16T04:46:46.135Z,72.41
2019-01-16T04:49:30.110Z,73.80
2019-01-16T04:52:25.402Z,73.87
2019-01-16T04:55:12.704Z,73.71
2019-01-16T04:57:54.614Z,75.03
2019-01-16T05:00:42.130Z,73.08
2019-01-16T05:03:29.917Z,72.33
2019-01-16T05:06:22.524Z,72.72
2019-01-16T05:09:08.374Z,72.49
2019-01-16T05:11:56.149Z,72.63
2019-01-16T05:14:42.858Z,75.27
2019-01-16T05:17:38.036Z,76.12
2019-01-16T05:20:28.174Z,71.36
2019-01-16T05:23:07.571Z,70.74
2019-01-16T05:25:47.402Z,73.18
2019-01-16T05:28:41.253Z,70.90
2019-01-16T05:31:36.199Z,70.19
2019-01-16T05:34:28.212Z,71.03
2019-01-16T05:37:29.468Z,70.79
2019-01-16T05:40:10.577Z,73.74
2019-01-16T05:43:03.604Z,71.23
2019-01-16T05:45:42.091Z,71.12
2019-01-16T05:48:45.998Z,71.17
2019-01-16T05:51:26.255Z,70.69
2019-01-16T05:54:14.228Z,69.92
2019-01-16T05:57:01.459Z,69.01
2019-01-16T05:59:54.374Z,67.64
2019-01-16T06:02:37.569Z,68.83
2019-01-16T06:05:36.690Z,69.39
2019-01-16T06:08:35.931Z,68.52
2019-01-16T06:11:31.237Z,67.19
2019-01-16T06:14:17.047Z,68.47
2019-01-16T06:17:05.390Z,67.70
2019-01-16T06:20:12.155Z,66.95
2019-01-16T06:22:53.000Z,69.00
2019-01-16T06:25:35.190Z,69.52
2019-01-16T06:28:26.464Z,67.84
2019-01-16T06:31:33.824Z,69.01
2019-01-16T06:34:18.842Z,68.15
2019-01-16T06:37:14.937Z,69.16
2019-01-16T06:40:02.643Z,69.26
2019-01-16T06:43:00.667Z,71.81
2019-01-16T06:45:42.397Z,68.76
2019-01-16T06:48:26.673Z,69.26
2019-01-16T06:51:02.285Z,70.49
2019-01-16T06:53:54.843Z,72.09
2019-01-16T06:56:41.438Z,69.71
2019-01-16T06:59:25.496Z,68.37
2019-01-16T07:02:11.896Z,70.54
2019-01-16T07:04:59.783Z,71.83
2019-01-16T07:07:55.232Z,69.38
2019-01-16T07:10:50.247Z,70.65
2019-01-16T07:13:39.184Z,75.24
2019-01-16T07:16:34.449Z,69.56
2019-01-16T07:19:22.780Z,68.53
2019-01-16T07:22:01.204Z,70.23
2019-01-16T07:24:54.792Z,69.13
2019-01-16T07:27:42.596Z,70.12
2019-01-16T07:30:34.605Z,68.58
2019-01-16T07:33:22.674Z,67.70
2019-01-16T07:36:19.101Z,70.49
2019-01-16T07:39:00.442Z,71.55
2019-01-16T07:41:48.221Z,68.98
2019-01-16T07:44:46.533Z,69.95
2019-01-16T07:47:44.239Z,68.58
2019-01-16T07:50:33.272Z,68.50
2019-01-16T07:53:28.423Z,68.36
2019-01-16T07:56:17.341Z,67.64
2019-01-16T07:58:54.674Z,70.50
2019-01-16T08:01:50.553Z,71.21
2019-01-16T08:04:54.894Z,71.20
2019-01-16T08:07:38.028Z,72.66
2019-01-16T08:10:36.090Z,69.06
2019-01-16T08:13:34.150Z,70.05
2019-01-16T08:16:25.504Z,70.52
2019-01-16T08:19:08.392Z,70.85
2019-01-16T08:21:56.057Z,69.73
2019-01-16T08:24:31.720Z,70.52
2019-01-16T08:27:16.329Z,68.15
2019-01-16T08:30:08.259Z,69.57
2019-01-16T08:32:50.238Z,67.71
2019-01-16T08:35:30.608Z,67.66
2019-01-16T08:38:18.570Z,70.76
2019-01-16T08:41:07.326Z,69.11
2019-01-16T08:43:55.114Z,69.63
2019-01-16T08:46:43.598Z,69.18
2019-01-16T08:49:31.218Z,68.08
2019-01-16T08:52:20.230Z,68.98
2019-01-16T08:55:07.836Z,68.36
2019-01-16T08:58:00.225Z,68.64
2019-01-16T09:00:52.915Z,68.02
2019-01-16T09:03:40.726Z,67.66
2019-01-16T09:06:26.492Z,67.76
2019-01-16T09:09:17.859Z,68.36
2019-01-16T09:12:06.045Z,67.86
2019-01-16T09:14:47.781Z,67.32
2019-01-16T09:17:35.668Z,69.49
2019-01-16T09:20:27.839Z,67.80
2019-01-16T09:23:08.178Z,68.02
2019-01-16T09:26:12.236Z,68.16
2019-01-16T09:29:03.852Z,70.14
2019-01-16T09:31:51.632Z,67.96
2019-01-16T09:34:46.577Z,67.05
2019-01-16T09:37:27.753Z,70.45
2019-01-16T09:40:15.676Z,68.26
2019-01-16T09:43:09.062Z,68.82
2019-01-16T09:45:57.136Z,69.14
2019-01-16T09:48:57.127Z,68.68
2019-01-16T09:51:44.801Z,69.42
2019-01-16T09:54:32.852Z,68.44
2019-01-16T09:57:34.044Z,66.92
2019-01-16T10:00:24.698Z,67.46
2019-01-16T10:03:14.231Z,68.05
2019-01-16T10:05:55.570Z,69.33
2019-01-16T10:08:40.443Z,68.11
2019-01-16T10:11:21.835Z,69.49
2019-01-16T10:14:06.365Z,66.94
2019-01-16T10:16:59.456Z,66.58
2019-01-16T10:19:45.866Z,66.51
2019-01-16T10:22:28.991Z,66.90
2019-01-16T10:25:07.166Z,66.95
2019-01-16T10:28:00.191Z,66.75
2019-01-16T10:30:42.363Z,66.18
2019-01-16T10:33:25.388Z,65.79
2019-01-16T10:36:13.450Z,66.70
2019-01-16T10:39:02.590Z,65.94
2019-01-16T10:41:50.840Z,65.56
2019-01-16T10:44:29.982Z,66.22
2019-01-16T10:47:17.490Z,65.72
2019-01-16T10:50:12.408Z,65.44
2019-01-16T10:53:07.340Z,66.22
2019-01-16T10:55:54.897Z,65.75
2019-01-16T10:58:53.703Z,65.25
2019-01-16T11:01:51.971Z,65.11
2019-01-16T11:04:39.870Z,65.14
2019-01-16T11:07:28.114Z,67.57
2019-01-16T11:10:19.323Z,65.67
2019-01-16T11:13:01.309Z,66.80
2019-01-16T11:15:49.352Z,67.26
2019-01-16T11:18:33.113Z,64.96
2019-01-16T11:21:21.099Z,65.25
2019-01-16T11:24:02.388Z,66.79
2019-01-16T11:26:53.212Z,65.72
2019-01-16T11:29:34.592Z,64.48
2019-01-16T11:32:22.292Z,63.71
2019-01-16T11:35:10.154Z,63.63
2019-01-16T11:37:58.881Z,64.39
2019-01-16T11:40:50.938Z,64.38
2019-01-16T11:43:42.885Z,64.19
2019-01-16T11:46:44.110Z,63.59
2019-01-16T11:49:31.641Z,64.85
2019-01-16T11:52:19.311Z,63.69
2019-01-16T11:55:00.565Z,64.42
2019-01-16T11:58:01.597Z,64.19
2019-01-16T12:00:49.172Z,64.70
2019-01-16T12:03:38.081Z,64.37
2019-01-16T12:06:27.706Z,64.54
2019-01-16T12:09:15.674Z,63.57
2019-01-16T12:12:18.007Z,63.18
2019-01-16T12:15:09.022Z,63.76
2019-01-16T12:18:01.131Z,64.31
2019-01-16T12:20:50.221Z,66.40
2019-01-16T12:23:47.774Z,63.66
2019-01-16T12:26:36.875Z,64.36
2019-01-16T12:29:24.466Z,64.06
2019-01-16T12:32:12.101Z,63.98
2019-01-16T12:35:00.746Z,64.36
2019-01-16T12:37:43.811Z,64.40
2019-01-16T12:40:28.460Z,64.17
2019-01-16T12:43:29.751Z,64.38
2019-01-16T12:46:17.584Z,64.25
2019-01-16T12:49:08.240Z,65.79
2019-01-16T12:51:48.511Z,66.28
2019-01-16T12:54:40.180Z,63.96
2019-01-16T12:57:32.074Z,64.03
2019-01-16T13:00:14.446Z,64.03
2019-01-16T13:03:15.496Z,64.19
2019-01-16T13:06:02.709Z,62.81
2019-01-16T13:08:50.546Z,63.64
2019-01-16T13:11:35.099Z,65.25
2019-01-16T13:14:15.104Z,65.63
2019-01-16T13:17:04.562Z,62.91
2019-01-16T13:19:48.758Z,65.91
2019-01-16T13:22:30.317Z,63.36
2019-01-16T13:25:18.124Z,62.59
2019-01-16T13:28:11.811Z,62.08
2019-01-16T13:31:02.144Z,62.51
2019-01-16T13:33:54.136Z,66.55
2019-01-16T13:36:41.598Z,64.61
2019-01-16T13:39:29.332Z,62.79
2019-01-16T13:42:10.777Z,62.02
2019-01-16T13:45:05.811Z,63.23
2019-01-16T13:47:46.131Z,64.27
2019-01-16T13:50:45.924Z,62.27
2019-01-16T13:53:37.550Z,62.87
2019-01-16T13:56:23.793Z,62.64
2019-01-16T13:59:08.952Z,61.89
2019-01-16T14:01:54.617Z,63.09
2019-01-16T14:04:30.952Z,61.89
2019-01-16T14:07:24.929Z,62.79
2019-01-16T14:10:15.205Z,62.21
2019-01-16T14:13:03.612Z,62.53
2019-01-16T14:15:50.215Z,62.50
2019-01-16T14:18:27.007Z,63.60
2019-01-16T14:21:18.914Z,62.36
2019-01-16T14:24:02.255Z,63.53
2019-01-16T14:26:55.773Z,64.80
2019-01-16T14:29:48.686Z,62.33
2019-01-16T14:32:42.042Z,62.54
2019-01-16T14:35:29.722Z,63.79
2019-01-16T14:38:20.656Z,63.39
2019-01-16T14:41:08.806Z,63.38
2019-01-16T14:43:56.276Z,62.97
2019-01-16T14:46:50.039Z,62.70
2019-01-16T14:49:32.560Z,62.70
2019-01-16T14:52:11.333Z,62.89
2019-01-16T14:54:58.868Z,62.33
2019-01-16T14:57:38.340Z,62.45
2019-01-16T15:00:29.920Z,63.74
2019-01-16T15:03:30.931Z,63.37
2019-01-16T15:06:13.609Z,64.11
2019-01-16T15:09:00.049Z,62.40
2019-01-16T15:11:47.813Z,63.22
2019-01-16T15:14:30.888Z,62.90
2019-01-16T15:17:18.423Z,63.43
2019-01-16T15:20:08.096Z,63.15
2019-01-16T15:22:48.559Z,62.05
2019-01-16T15:25:52.404Z,62.44
2019-01-16T15:28:39.551Z,62.97
2019-01-16T15:31:28.200Z,62.17
2019-01-16T15:34:17.587Z,62.03
2019-01-16T15:37:12.116Z,64.50
2019-01-16T15:40:11.556Z,63.32
2019-01-16T15:43:00.426Z,62.94
2019-01-16T15:45:48.315Z,62.69
2019-01-16T15:48:44.661Z,62.85
2019-01-16T15:51:32.621Z,62.78
2019-01-16T15:54:40.036Z,62.75
2019-01-16T15:57:32.935Z,62.67
2019-01-16T16:00:20.212Z,63.87
2019-01-16T16:03:07.779Z,62.49
2019-01-16T16:05:55.356Z,62.58
2019-01-16T16:08:46.650Z,62.24
2019-01-16T16:11:29.514Z,62.96
2019-01-16T16:14:27.191Z,62.03
2019-01-16T16:17:25.248Z,63.59
2019-01-16T16:20:06.377Z,63.68
2019-01-16T16:22:57.811Z,63.15
2019-01-16T16:25:39.357Z,62.24
2019-01-16T16:28:26.818Z,62.09
2019-01-16T16:31:06.233Z,62.36
2019-01-16T16:33:48.367Z,61.78
2019-01-16T16:36:27.977Z,62.11
2019-01-16T16:39:24.151Z,61.66
2019-01-16T16:42:07.337Z,61.65
2019-01-16T16:45:00.341Z,61.63
2019-01-16T16:47:48.113Z,61.82
2019-01-16T16:50:28.499Z,62.89
2019-01-16T16:53:17.365Z,62.33
2019-01-16T16:56:04.934Z,61.90
2019-01-16T16:58:46.778Z,61.72
2019-01-16T17:01:28.250Z,61.78
2019-01-16T17:04:16.242Z,61.78
2019-01-16T17:07:00.436Z,62.77
2019-01-16T17:09:48.568Z,61.70
2019-01-16T17:12:35.991Z,62.59
2019-01-16T17:15:26.420Z,61.32
2019-01-16T17:18:14.380Z,61.70
2019-01-16T17:20:55.171Z,60.95
2019-01-16T17:23:46.528Z,60.55
2019-01-16T17:26:35.482Z,62.38
2019-01-16T17:29:28.245Z,61.47
2019-01-16T17:32:29.348Z,63.10
2019-01-16T17:35:26.195Z,60.99
2019-01-16T17:38:17.124Z,60.58
2019-01-16T17:41:08.235Z,61.09
2019-01-16T17:43:53.039Z,60.17
2019-01-16T17:46:42.555Z,60.32
2019-01-16T17:49:25.693Z,61.46
2019-01-16T17:52:18.445Z,59.63
2019-01-16T17:55:19.418Z,60.39
2019-01-16T17:58:07.196Z,59.19
2019-01-16T18:00:59.362Z,58.91
2019-01-16T18:03:52.500Z,60.22
2019-01-16T18:06:41.411Z,58.99
2019-01-16T18:09:48.986Z,61.21
2019-01-16T18:12:55.940Z,60.65
2019-01-16T18:16:03.035Z,59.10
2019-01-16T18:18:42.753Z,59.03
2019-01-16T18:21:24.096Z,57.93
2019-01-16T18:24:10.881Z,61.27
2019-01-16T18:27:09.275Z,58.68
2019-01-16T18:30:08.203Z,58.11
2019-01-16T18:32:55.705Z,60.14
2019-01-16T18:35:36.612Z,59.45
2019-01-16T18:38:25.350Z,57.96
2019-01-16T18:41:21.193Z,59.15
2019-01-16T18:44:24.388Z,57.70
2019-01-16T18:47:20.495Z,58.70
2019-01-16T18:50:13.155Z,60.10
2019-01-16T18:53:18.383Z,57.67
2019-01-16T18:56:13.768Z,58.18
2019-01-16T18:58:52.774Z,57.59
2019-01-16T19:01:37.801Z,58.65
2019-01-16T19:04:32.292Z,57.22
2019-01-16T19:07:20.448Z,57.29
2019-01-16T19:09:59.613Z,56.00
2019-01-16T19:12:51.005Z,56.55
2019-01-16T19:15:35.328Z,56.62
2019-01-16T19:18:18.627Z,55.98
2019-01-16T19:21:02.257Z,56.29
2019-01-16T19:23:46.390Z,56.84
2019-01-16T19:26:35.283Z,56.10
2019-01-16T19:29:22.833Z,56.30
2019-01-16T19:32:06.373Z,56.29
2019-01-16T19:34:46.957Z,57.34
2019-01-16T19:37:44.831Z,56.52
2019-01-16T19:40:32.261Z,56.29
2019-01-16T19:43:36.454Z,55.53
2019-01-16T19:46:24.243Z,56.06
2019-01-16T19:49:13.864Z,55.72
2019-01-16T19:51:59.637Z,55.59
2019-01-16T19:54:51.516Z,55.53
2019-01-16T19:57:37.144Z,56.38
2019-01-16T20:00:27.005Z,56.46
2019-01-16T20:03:14.710Z,56.45
2019-01-16T20:06:03.809Z,55.38
2019-01-16T20:08:48.409Z,55.70
2019-01-16T20:11:43.367Z,55.17
2019-01-16T20:14:32.110Z,55.10
2019-01-16T20:17:24.313Z,55.93
2019-01-16T20:20:04.720Z,55.28
2019-01-16T20:22:52.076Z,56.16
2019-01-16T20:25:39.432Z,55.19
2019-01-16T20:28:24.454Z,55.50
2019-01-16T20:31:28.848Z,55.38
2019-01-16T20:34:08.746Z,55.72
2019-01-16T20:36:48.875Z,56.76
2019-01-16T20:39:36.675Z,56.66
2019-01-16T20:42:40.994Z,56.13
2019-01-16T20:45:29.273Z,55.10
2019-01-16T20:48:13.241Z,54.42
2019-01-16T20:51:00.968Z,55.12
2019-01-16T20:53:50.128Z,55.17
2019-01-16T20:56:47.579Z,55.07
2019-01-16T20:59:35.699Z,55.15
2019-01-16T21:02:17.758Z,55.02
2019-01-16T21:05:06.705Z,55.59
2019-01-16T21:07:45.034Z,55.40
2019-01-16T21:10:35.761Z,55.59
2019-01-16T21:13:23.453Z,56.24
2019-01-16T21:16:10.436Z,57.02
2019-01-16T21:18:57.496Z,56.38
2019-01-16T21:21:46.593Z,55.86
2019-01-16T21:24:30.010Z,56.43
2019-01-16T21:27:20.614Z,55.62
2019-01-16T21:30:13.443Z,56.13
2019-01-16T21:33:10.488Z,55.80
2019-01-16T21:36:01.844Z,55.96
2019-01-16T21:38:42.461Z,55.54
2019-01-16T21:41:34.787Z,55.51
2019-01-16T21:44:29.595Z,56.52
2019-01-16T21:47:16.948Z,56.52
2019-01-16T21:50:16.884Z,56.31
2019-01-16T21:53:08.905Z,56.35
2019-01-16T21:55:56.627Z,56.98
2019-01-16T21:58:44.840Z,56.67
2019-01-16T22:01:36.744Z,57.39
2019-01-16T22:04:29.331Z,57.93
2019-01-16T22:07:11.572Z,57.82
2019-01-16T22:10:12.470Z,58.06
2019-01-16T22:13:01.053Z,57.83
2019-01-16T22:15:53.796Z,57.72
2019-01-16T22:18:53.270Z,57.71
2019-01-16T22:21:36.338Z,58.02
2019-01-16T22:24:15.870Z,57.86
2019-01-16T22:27:03.182Z,59.37
2019-01-16T22:29:59.277Z,58.55
2019-01-16T22:33:04.611Z,58.21
2019-01-16T22:36:03.551Z,58.27
2019-01-16T22:39:02.422Z,58.34
2019-01-16T22:42:01.807Z,58.09
2019-01-16T22:44:44.259Z,58.61
2019-01-16T22:47:32.736Z,58.38
2019-01-16T22:50:42.189Z,58.86
2019-01-16T22:53:25.781Z,58.83
2019-01-16T22:56:14.159Z,58.96
2019-01-16T22:59:13.256Z,60.87
2019-01-16T23:02:05.665Z,59.60
2019-01-16T23:05:14.009Z,58.85
2019-01-16T23:08:05.982Z,58.67
2019-01-16T23:10:54.589Z,58.67
2019-01-16T23:13:38.129Z,58.61
2019-01-16T23:16:31.297Z,59.26
2019-01-16T23:19:16.667Z,59.40
2019-01-16T23:22:05.749Z,59.52
2019-01-16T23:24:55.518Z,59.88
2019-01-16T23:27:56.998Z,59.04
2019-01-16T23:30:56.686Z,59.49
2019-01-16T23:33:55.773Z,59.82
2019-01-16T23:36:49.227Z,59.21
2019-01-16T23:39:38.718Z,58.91
2019-01-16T23:42:28.262Z,60.29
2019-01-16T23:45:13.792Z,59.03
2019-01-16T23:48:07.494Z,59.55
2019-01-16T23:51:05.880Z,58.92
2019-01-16T23:53:56.177Z,59.45
2019-01-16T23:56:42.196Z,59.56
2019-01-16T23:59:30.450Z,60.36
